Time;durP1;ratioP1;P1;durP2;ratioP2;P2;SDS_P1;SDS_P2;PMS_P1;PMS_P2;Temp;Humidity;BMP_temperature;BMP_pressure;BME280_temperature;BME280_humidity;BME280_pressure;Samples;Min_cycle;Max_cycle;Signal;HPM_P1;HPM_P2
2020/12/16 00:00:48;;;;;;;38.20;12.67;;;6.40;92.00;;;;;;5093157;28;20423;-79
2020/12/16 00:03:14;;;;;;;21.93;12.70;;;6.30;91.90;;;;;;5075886;28;20131;-78
2020/12/16 00:05:39;;;;;;;21.20;13.10;;;6.30;91.90;;;;;;5091944;28;20587;-79
2020/12/16 00:08:05;;;;;;;26.97;15.57;;;6.30;92.00;;;;;;5092948;28;20027;-79
2020/12/16 00:10:31;;;;;;;27.17;15.23;;;6.40;92.30;;;;;;5092314;28;20048;-79
2020/12/16 00:12:56;;;;;;;25.03;14.60;;;6.40;92.40;;;;;;5111193;28;20486;-79
2020/12/16 00:15:22;;;;;;;22.63;13.90;;;6.50;92.40;;;;;;5092882;28;20356;-78
2020/12/16 00:17:49;;;;;;;22.53;13.17;;;6.40;92.30;;;;;;5095397;28;20027;-79
2020/12/16 00:20:15;;;;;;;14.30;10.47;;;6.40;92.20;;;;;;5096464;28;20080;-79
2020/12/16 00:22:41;;;;;;;19.23;11.07;;;6.40;92.00;;;;;;5096204;28;20341;-80
2020/12/16 00:25:08;;;;;;;13.70;10.97;;;6.20;91.80;;;;;;5096594;28;20032;-79
2020/12/16 00:27:34;;;;;;;16.53;9.37;;;6.10;91.70;;;;;;5079163;28;20027;-79
2020/12/16 00:30:00;;;;;;;16.70;9.23;;;6.10;91.70;;;;;;5114917;28;20027;-79
2020/12/16 00:32:26;;;;;;;38.17;12.87;;;6.00;91.70;;;;;;5078677;28;20360;-78
2020/12/16 00:34:52;;;;;;;33.37;12.47;;;6.00;91.70;;;;;;5094404;28;20115;-78
2020/12/16 00:37:17;;;;;;;41.50;13.60;;;6.10;91.80;;;;;;5109806;28;20103;-78
2020/12/16 00:39:43;;;;;;;25.00;13.60;;;6.10;91.90;;;;;;5095706;28;20054;-78
2020/12/16 00:42:10;;;;;;;31.83;13.63;;;6.00;91.90;;;;;;5096727;28;20042;-79
2020/12/16 00:44:38;;;;;;;25.13;13.40;;;6.00;91.90;;;;;;5091930;28;20043;-79
2020/12/16 00:47:04;;;;;;;19.17;12.60;;;6.00;92.00;;;;;;5094117;28;20030;-79
2020/12/16 00:49:30;;;;;;;15.97;13.10;;;6.00;92.00;;;;;;5075258;28;20122;-79
2020/12/16 00:51:55;;;;;;;21.70;14.50;;;6.10;92.00;;;;;;5094921;28;20082;-79
2020/12/16 00:54:21;;;;;;;22.10;14.50;;;6.10;92.10;;;;;;5094234;28;20032;-79
2020/12/16 00:56:46;;;;;;;25.43;14.80;;;6.10;92.10;;;;;;5097256;28;20225;-79
2020/12/16 00:59:12;;;;;;;25.10;14.47;;;6.10;92.20;;;;;;5117603;28;20032;-78
2020/12/16 01:01:38;;;;;;;14.53;12.33;;;6.10;92.20;;;;;;5134230;28;20483;-79
2020/12/16 01:04:04;;;;;;;21.57;12.57;;;6.10;92.10;;;;;;5112703;28;20035;-78
2020/12/16 01:06:29;;;;;;;14.63;13.03;;;6.10;92.00;;;;;;5096981;28;20031;-79
2020/12/16 01:08:55;;;;;;;20.03;14.33;;;6.00;91.90;;;;;;5098982;28;20031;-79
2020/12/16 01:11:21;;;;;;;17.70;14.70;;;6.00;92.00;;;;;;5098923;28;20052;-78
2020/12/16 01:13:46;;;;;;;19.20;16.03;;;5.90;92.10;;;;;;5099533;28;20023;-78
2020/12/16 01:16:12;;;;;;;34.60;19.93;;;5.80;92.10;;;;;;5081035;28;20032;-78
2020/12/16 01:18:37;;;;;;;32.17;20.40;;;5.70;92.30;;;;;;5078662;28;20036;-78
2020/12/16 01:21:04;;;;;;;59.17;23.33;;;5.70;92.50;;;;;;5096411;28;20027;-78
2020/12/16 01:23:30;;;;;;;28.87;20.37;;;5.70;92.60;;;;;;5094660;28;20376;-77
2020/12/16 01:25:56;;;;;;;61.83;25.47;;;5.70;92.70;;;;;;5078668;28;20109;-79
2020/12/16 01:28:21;;;;;;;32.90;21.13;;;5.70;92.70;;;;;;5091770;28;20036;-78
2020/12/16 01:30:47;;;;;;;67.57;24.47;;;5.80;92.70;;;;;;5090272;28;20030;-78
2020/12/16 01:33:13;;;;;;;57.63;22.10;;;5.70;92.70;;;;;;5095314;28;20115;-78
2020/12/16 01:35:38;;;;;;;25.47;20.43;;;5.70;92.60;;;;;;5112740;28;20085;-79
2020/12/16 01:38:04;;;;;;;28.73;21.87;;;5.60;92.70;;;;;;5078488;28;20020;-79
2020/12/16 01:40:30;;;;;;;26.10;20.63;;;5.60;92.80;;;;;;5092435;28;20035;-77
2020/12/16 01:42:56;;;;;;;26.63;21.30;;;5.60;92.80;;;;;;5077118;28;20114;-78
2020/12/16 01:45:23;;;;;;;26.10;20.87;;;5.60;92.80;;;;;;5081212;28;20546;-78
2020/12/16 01:47:50;;;;;;;26.43;20.47;;;5.60;92.80;;;;;;5095114;28;20032;-78
2020/12/16 01:50:16;;;;;;;31.67;22.93;;;5.60;92.80;;;;;;5113560;28;20035;-78
2020/12/16 01:52:43;;;;;;;24.40;19.00;;;5.60;92.80;;;;;;5112522;28;20107;-79
2020/12/16 01:55:10;;;;;;;24.87;20.53;;;5.60;92.80;;;;;;5094780;28;20065;-78
2020/12/16 01:57:38;;;;;;;23.67;18.87;;;5.60;92.80;;;;;;5093313;28;20020;-79
2020/12/16 02:00:09;;;;;;;20.43;17.23;;;5.70;92.80;;;;;;5095131;28;20051;-79
2020/12/16 02:02:42;;;;;;;20.70;16.70;;;5.80;92.70;;;;;;5077685;28;20020;-79
2020/12/16 02:05:09;;;;;;;21.92;17.35;;;5.70;92.60;;;;;;5112788;28;20141;-79
2020/12/16 02:07:36;;;;;;;26.27;19.73;;;5.70;92.60;;;;;;5093914;28;20459;-79
2020/12/16 02:10:03;;;;;;;24.03;19.80;;;5.60;92.60;;;;;;5112835;28;20379;-78
2020/12/16 02:12:32;;;;;;;29.50;21.83;;;5.50;92.60;;;;;;5094319;28;20073;-78
2020/12/16 02:14:58;;;;;;;22.83;18.63;;;5.50;92.60;;;;;;5094257;28;20383;-79
2020/12/16 02:17:23;;;;;;;23.10;18.77;;;5.50;92.70;;;;;;5094456;28;20054;-78
2020/12/16 02:20:00;;;;;;;24.77;19.60;;;5.50;92.70;;;;;;5093333;28;20502;-79
2020/12/16 02:22:26;;;;;;;20.50;17.60;;;5.50;92.70;;;;;;5094143;28;20027;-79
2020/12/16 02:25:07;;;;;;;24.00;18.37;;;5.50;92.70;;;;;;5093560;28;20041;-78
2020/12/16 02:27:34;;;;;;;25.33;18.83;;;5.50;92.60;;;;;;5093495;28;20057;-78
2020/12/16 02:30:00;;;;;;;20.27;16.77;;;5.60;92.70;;;;;;5093756;28;20027;-78
2020/12/16 02:32:27;;;;;;;20.50;16.70;;;5.60;92.70;;;;;;5094023;28;20382;-78
2020/12/16 02:34:54;;;;;;;19.67;15.13;;;5.60;92.60;;;;;;5111623;28;20096;-77
2020/12/16 02:37:20;;;;;;;19.37;15.83;;;5.70;92.70;;;;;;5093217;28;20059;-78
2020/12/16 02:39:46;;;;;;;19.07;15.50;;;5.70;92.60;;;;;;5092451;28;20493;-78
2020/12/16 02:42:13;;;;;;;20.07;16.67;;;5.80;92.60;;;;;;5112087;28;20070;-78
2020/12/16 02:44:39;;;;;;;20.53;16.03;;;5.80;92.60;;;;;;5092927;28;20040;-77
2020/12/16 02:47:06;;;;;;;20.37;16.03;;;5.90;92.50;;;;;;5090096;28;20082;-78
2020/12/16 02:49:31;;;;;;;16.60;14.40;;;5.80;92.50;;;;;;5072886;28;20426;-77
2020/12/16 02:51:58;;;;;;;22.80;13.37;;;5.80;92.40;;;;;;5081474;28;20115;-78
2020/12/16 02:54:24;;;;;;;18.30;15.53;;;5.80;92.30;;;;;;5093286;28;20027;-77
2020/12/16 02:56:52;;;;;;;18.50;14.67;;;5.80;92.20;;;;;;5074666;28;20066;-77
2020/12/16 02:59:22;;;;;;;17.37;14.57;;;5.80;92.20;;;;;;5093245;28;20020;-78
2020/12/16 03:01:49;;;;;;;20.07;15.53;;;5.70;92.10;;;;;;5110877;28;20486;-78
2020/12/16 03:04:16;;;;;;;19.40;15.87;;;5.80;92.20;;;;;;5093553;28;20043;-78
2020/12/16 03:06:41;;;;;;;18.60;15.60;;;5.90;92.50;;;;;;5075678;28;20027;-77
2020/12/16 03:09:08;;;;;;;15.50;13.27;;;5.90;92.50;;;;;;5093203;28;20410;-77
2020/12/16 03:11:34;;;;;;;17.00;13.07;;;6.00;92.70;;;;;;5110904;28;20081;-77
2020/12/16 03:13:59;;;;;;;16.40;13.33;;;6.00;92.70;;;;;;5076436;28;20032;-78
2020/12/16 03:16:25;;;;;;;16.57;13.37;;;6.00;92.50;;;;;;5093462;28;20096;-78
2020/12/16 03:18:50;;;;;;;15.23;12.60;;;5.90;92.30;;;;;;5058613;28;20084;-78
2020/12/16 03:21:26;;;;;;;16.73;14.10;;;5.80;92.20;;;;;;5093112;28;20136;-78
2020/12/16 03:23:52;;;;;;;14.93;12.57;;;5.80;92.00;;;;;;5110627;28;20046;-78
2020/12/16 03:26:19;;;;;;;14.90;13.03;;;5.60;91.90;;;;;;5072854;28;20365;-77
2020/12/16 03:28:45;;;;;;;14.60;12.87;;;5.40;91.80;;;;;;5079305;28;20030;-78
2020/12/16 03:31:11;;;;;;;14.10;12.07;;;5.30;91.80;;;;;;5072922;28;20016;-77
2020/12/16 03:33:40;;;;;;;15.27;12.93;;;5.10;91.80;;;;;;5084194;28;20088;-77
2020/12/16 03:36:05;;;;;;;15.00;13.03;;;4.90;91.90;;;;;;5073573;28;20455;-79
2020/12/16 03:38:31;;;;;;;19.07;14.40;;;5.00;92.10;;;;;;5093419;28;20025;-78
2020/12/16 03:40:57;;;;;;;18.47;15.03;;;5.00;92.20;;;;;;5078970;28;20030;-78
2020/12/16 03:43:23;;;;;;;19.33;15.43;;;5.10;92.40;;;;;;5111142;28;20028;-78
2020/12/16 03:45:50;;;;;;;19.80;14.97;;;5.30;92.50;;;;;;5092135;28;20043;-78
2020/12/16 03:48:16;;;;;;;16.80;13.80;;;5.40;92.70;;;;;;5076266;28;20344;-79
2020/12/16 03:50:42;;;;;;;17.60;14.07;;;5.50;92.60;;;;;;5091997;28;20027;-78
2020/12/16 03:53:08;;;;;;;16.53;13.60;;;5.60;92.60;;;;;;5092526;28;20035;-79
2020/12/16 03:55:33;;;;;;;16.37;11.87;;;5.70;92.60;;;;;;5060292;28;20039;-79
2020/12/16 03:57:59;;;;;;;13.53;10.77;;;5.70;92.60;;;;;;5105789;28;20028;-78
2020/12/16 04:00:25;;;;;;;12.07;10.37;;;5.70;92.50;;;;;;5080153;28;20059;-78
2020/12/16 04:02:50;;;;;;;11.83;9.70;;;5.80;92.50;;;;;;5072604;28;20040;-78
2020/12/16 04:05:16;;;;;;;9.80;8.53;;;5.80;92.40;;;;;;5093088;28;20120;-78
2020/12/16 04:07:42;;;;;;;9.80;8.80;;;5.80;92.10;;;;;;5092945;28;20034;-77
2020/12/16 04:10:07;;;;;;;9.03;8.13;;;5.80;92.10;;;;;;5076316;28;20105;-78
2020/12/16 04:12:33;;;;;;;9.30;7.97;;;5.80;92.10;;;;;;5096320;28;20032;-78
2020/12/16 04:14:58;;;;;;;9.67;8.67;;;5.80;92.10;;;;;;5079121;28;20088;-78
2020/12/16 04:17:24;;;;;;;11.70;9.97;;;5.70;92.00;;;;;;5079766;28;20036;-77
2020/12/16 04:19:50;;;;;;;11.60;10.00;;;5.70;92.10;;;;;;5114135;28;20059;-78
2020/12/16 04:22:15;;;;;;;11.57;10.10;;;5.80;92.30;;;;;;5096143;28;20098;-77
2020/12/16 04:24:41;;;;;;;8.80;7.90;;;5.80;92.30;;;;;;5079300;28;20031;-77
2020/12/16 04:27:07;;;;;;;10.30;8.37;;;5.70;92.10;;;;;;5079817;28;20130;-78
2020/12/16 04:29:32;;;;;;;10.73;9.60;;;5.50;91.50;;;;;;5096416;28;20441;-77
2020/12/16 04:31:58;;;;;;;10.40;9.30;;;5.10;91.20;;;;;;5079011;28;20031;-77
2020/12/16 04:34:23;;;;;;;10.27;9.27;;;4.80;91.30;;;;;;5096646;28;20032;-77
2020/12/16 04:36:50;;;;;;;11.53;9.67;;;4.80;91.60;;;;;;5095167;28;20497;-77
2020/12/16 04:39:17;;;;;;;11.33;10.13;;;4.90;91.90;;;;;;5079145;28;20024;-76
2020/12/16 04:41:43;;;;;;;12.43;10.37;;;5.00;92.10;;;;;;5113642;28;20460;-77
2020/12/16 04:44:13;;;;;;;10.60;9.50;;;5.20;92.30;;;;;;5114674;28;20039;-78
2020/12/16 04:46:41;;;;;;;10.47;8.70;;;5.30;92.30;;;;;;5079128;28;20495;-78
2020/12/16 04:49:08;;;;;;;9.47;8.57;;;5.40;92.20;;;;;;5095160;28;20039;-78
2020/12/16 04:51:35;;;;;;;9.03;8.13;;;5.40;92.00;;;;;;5091750;28;20118;-77
2020/12/16 04:54:02;;;;;;;9.07;8.27;;;5.10;91.30;;;;;;5106814;28;20031;-78
2020/12/16 04:56:32;;;;;;;7.77;7.00;;;4.80;91.10;;;;;;5075503;28;20036;-78
2020/12/16 04:58:57;;;;;;;8.47;7.53;;;4.60;91.30;;;;;;5112686;28;20028;-78
2020/12/16 05:01:23;;;;;;;11.07;9.87;;;4.50;91.50;;;;;;5096116;28;20539;-77
2020/12/16 05:03:48;;;;;;;11.17;10.00;;;4.60;91.60;;;;;;5094704;28;20038;-77
2020/12/16 05:06:37;;;;;;;9.80;8.90;;;4.70;91.90;;;;;;5091862;28;20032;-77
2020/12/16 05:09:16;;;;;;;8.53;7.73;;;4.90;91.90;;;;;;5090994;28;20361;-78
2020/12/16 05:11:50;;;;;;;19.70;8.10;;;4.90;91.40;;;;;;5111094;28;20050;-77
2020/12/16 05:14:24;;;;;;;46.67;10.50;;;4.70;91.20;;;;;;5113848;28;20035;-77
2020/12/16 05:16:58;;;;;;;31.37;10.67;;;4.50;91.30;;;;;;5113232;28;20030;-78
2020/12/16 05:19:40;;;;;;;19.43;10.83;;;4.40;91.40;;;;;;5095569;28;20027;-79
2020/12/16 05:22:12;;;;;;;24.60;11.67;;;4.40;91.50;;;;;;5113499;28;20015;-78
2020/12/16 05:24:38;;;;;;;21.50;11.17;;;4.50;91.80;;;;;;5095439;28;20027;-78
2020/12/16 05:27:06;;;;;;;21.33;9.73;;;4.70;92.10;;;;;;5094217;28;20105;-78
2020/12/16 05:29:32;;;;;;;18.87;8.47;;;4.80;92.00;;;;;;5095096;28;20024;-78
2020/12/16 05:31:57;;;;;;;19.40;8.60;;;4.90;91.70;;;;;;5112935;28;20036;-78
2020/12/16 05:34:29;;;;;;;13.53;9.17;;;4.80;91.20;;;;;;5062143;28;20174;-79
2020/12/16 05:36:55;;;;;;;15.80;9.60;;;4.70;90.90;;;;;;5108215;28;20027;-79
2020/12/16 05:39:21;;;;;;;14.00;10.17;;;4.50;91.00;;;;;;5078782;28;20391;-78
2020/12/16 05:41:54;;;;;;;11.80;10.23;;;4.40;90.90;;;;;;5112885;28;20028;-78
2020/12/16 05:44:27;;;;;;;12.70;10.73;;;4.30;91.30;;;;;;5113430;28;20027;-78
2020/12/16 05:46:53;;;;;;;17.63;12.77;;;4.30;91.60;;;;;;5078146;28;20085;-77
2020/12/16 05:49:25;;;;;;;13.50;11.17;;;4.50;92.00;;;;;;5113813;28;20039;-78
2020/12/16 05:52:02;;;;;;;11.13;9.88;;;4.70;92.10;;;;;;5094490;28;20036;-78
2020/12/16 05:54:29;;;;;;;10.30;9.20;;;4.90;92.10;;;;;;5113035;28;20497;-78
2020/12/16 05:57:18;;;;;;;11.40;9.87;;;5.00;92.10;;;;;;5092649;28;20031;-78
2020/12/16 06:00:05;;;;;;;10.30;9.30;;;5.10;92.20;;;;;;5093267;28;20047;-78
2020/12/16 06:02:39;;;;;;;10.10;8.60;;;5.20;92.20;;;;;;5113173;28;20051;-77
2020/12/16 06:05:07;;;;;;;9.73;8.13;;;5.30;92.10;;;;;;5093806;28;20027;-78
2020/12/16 06:07:37;;;;;;;11.13;9.47;;;5.40;92.10;;;;;;5092797;28;20023;-78
2020/12/16 06:10:04;;;;;;;10.13;9.03;;;5.40;92.10;;;;;;5081592;28;20701;-78
2020/12/16 06:12:30;;;;;;;9.63;8.60;;;5.50;91.90;;;;;;5103461;28;20028;-79
2020/12/16 06:15:04;;;;;;;12.33;9.50;;;5.50;91.70;;;;;;5089974;28;20032;-76
2020/12/16 06:17:35;;;;;;;10.60;8.50;;;5.50;91.60;;;;;;5086091;28;20024;-78
2020/12/16 06:20:02;;;;;;;13.83;10.90;;;5.50;91.60;;;;;;5078874;28;20032;-80
2020/12/16 06:22:32;;;;;;;15.90;13.00;;;5.60;91.50;;;;;;5094531;28;20364;-78
2020/12/16 06:25:00;;;;;;;15.53;12.33;;;5.60;91.40;;;;;;5094622;28;20028;-79
2020/12/16 06:27:35;;;;;;;11.73;10.37;;;5.60;91.50;;;;;;5093701;28;20054;-79
2020/12/16 06:30:04;;;;;;;14.70;11.53;;;5.60;91.40;;;;;;5087043;28;20024;-79
2020/12/16 06:32:38;;;;;;;15.53;11.30;;;5.50;91.10;;;;;;5074674;28;20048;-79
2020/12/16 06:35:05;;;;;;;13.70;11.87;;;5.30;91.10;;;;;;5090862;28;20031;-79
2020/12/16 06:37:30;;;;;;;12.40;10.20;;;5.30;91.40;;;;;;5073625;28;20034;-79
2020/12/16 06:39:56;;;;;;;19.13;11.30;;;5.40;91.50;;;;;;5073252;28;20397;-79
2020/12/16 06:42:32;;;;;;;15.33;11.57;;;5.50;91.70;;;;;;5092350;28;20379;-79
2020/12/16 06:45:10;;;;;;;14.57;11.27;;;5.50;91.50;;;;;;5073633;28;20425;-79
2020/12/16 06:47:36;;;;;;;15.37;11.77;;;5.50;91.50;;;;;;5114801;28;20051;-80
2020/12/16 06:50:21;;;;;;;17.47;13.20;;;5.60;91.70;;;;;;5113362;28;20076;-78
2020/12/16 06:52:48;;;;;;;15.70;13.13;;;5.60;91.50;;;;;;5094704;28;20059;-78
2020/12/16 06:55:14;;;;;;;19.20;14.53;;;5.70;91.60;;;;;;5111951;28;20036;-80
2020/12/16 06:57:50;;;;;;;15.20;13.07;;;5.80;91.60;;;;;;5107680;28;20024;-79
2020/12/16 07:00:23;;;;;;;16.80;12.50;;;5.80;91.40;;;;;;5093456;28;20031;-79
2020/12/16 07:02:50;;;;;;;18.50;13.43;;;5.70;91.00;;;;;;5112221;28;20106;-79
2020/12/16 07:05:37;;;;;;;14.63;12.03;;;5.60;90.70;;;;;;5093977;28;20399;-79
2020/12/16 07:08:03;;;;;;;15.13;12.50;;;5.50;90.70;;;;;;5090790;28;20467;-79
2020/12/16 07:10:34;;;;;;;16.70;12.53;;;5.50;91.00;;;;;;5111251;28;20069;-79
2020/12/16 07:13:22;;;;;;;15.97;13.07;;;5.50;91.30;;;;;;5091276;28;20028;-80
2020/12/16 07:15:55;;;;;;;22.30;13.00;;;5.50;91.50;;;;;;5102315;28;20051;-80
2020/12/16 07:18:30;;;;;;;17.33;13.77;;;5.60;91.60;;;;;;5109595;28;20045;-79
2020/12/16 07:21:17;;;;;;;28.60;13.50;;;5.60;91.30;;;;;;5092299;28;20387;-81
2020/12/16 07:23:55;;;;;;;16.53;13.00;;;5.60;91.40;;;;;;5106480;28;20047;-78
2020/12/16 07:26:28;;;;;;;17.40;13.57;;;5.50;91.20;;;;;;5101108;28;20028;-78
2020/12/16 07:28:55;;;;;;;18.60;13.25;;;5.40;91.20;;;;;;5099684;28;20054;-78
2020/12/16 07:31:21;;;;;;;20.63;14.03;;;5.40;91.30;;;;;;5087628;28;20036;-77
2020/12/16 07:33:47;;;;;;;18.57;14.93;;;5.40;91.50;;;;;;5074405;28;20035;-79
2020/12/16 07:36:15;;;;;;;21.93;15.67;;;5.40;91.50;;;;;;5054709;28;20403;-78
2020/12/16 07:38:54;;;;;;;22.47;15.00;;;5.40;91.60;;;;;;5082872;28;20028;-78
2020/12/16 07:41:28;;;;;;;20.67;14.60;;;5.30;91.60;;;;;;5088889;28;20131;-82
2020/12/16 07:43:55;;;;;;;21.57;15.53;;;5.30;91.60;;;;;;5108014;28;20059;-79
2020/12/16 07:46:22;;;;;;;21.50;15.60;;;5.30;91.60;;;;;;5111447;28;20090;-78
2020/12/16 07:48:48;;;;;;;21.93;16.03;;;5.20;91.70;;;;;;5103644;28;20094;-79
2020/12/16 07:51:14;;;;;;;22.20;15.37;;;5.20;91.90;;;;;;5083441;28;20035;-78
2020/12/16 07:53:48;;;;;;;24.00;17.80;;;5.20;91.90;;;;;;5086638;28;20028;-78
2020/12/16 07:56:15;;;;;;;23.20;17.30;;;5.40;92.30;;;;;;5080803;28;20028;-80
2020/12/16 07:58:40;;;;;;;24.80;17.80;;;5.50;92.60;;;;;;5083567;28;20028;-79
2020/12/16 08:01:08;;;;;;;23.60;15.87;;;5.70;93.20;;;;;;5081623;28;20477;-81
2020/12/16 08:03:34;;;;;;;23.70;17.70;;;6.10;93.70;;;;;;5082444;28;20029;-80
2020/12/16 08:06:00;;;;;;;20.03;15.83;;;6.40;93.90;;;;;;5067738;28;20096;-80
2020/12/16 08:08:26;;;;;;;16.03;12.87;;;6.60;94.00;;;;;;5063906;28;20063;-80
2020/12/16 08:10:52;;;;;;;19.50;14.77;;;7.00;94.30;;;;;;5059840;28;20051;-81
2020/12/16 08:13:26;;;;;;;17.40;13.07;;;7.30;94.40;;;;;;5079857;28;20145;-80
2020/12/16 08:15:52;;;;;;;18.20;14.33;;;7.60;94.50;;;;;;5082138;28;20240;-78
2020/12/16 08:18:18;;;;;;;18.33;13.10;;;7.90;94.50;;;;;;5099613;28;20020;-79
2020/12/16 08:20:45;;;;;;;16.83;12.27;;;8.10;94.30;;;;;;5054494;28;20132;-79
2020/12/16 08:23:14;;;;;;;17.40;12.10;;;8.30;93.70;;;;;;5081604;28;20028;-79
2020/12/16 08:25:43;;;;;;;18.73;13.87;;;8.50;93.10;;;;;;5075055;28;20047;-80
2020/12/16 08:28:09;;;;;;;18.97;14.43;;;8.50;92.20;;;;;;5100087;28;20063;-79
2020/12/16 08:30:38;;;;;;;20.60;16.97;;;8.70;91.90;;;;;;5098671;28;20476;-80
2020/12/16 08:33:09;;;;;;;21.17;17.07;;;8.80;91.80;;;;;;5079812;28;20492;-79
2020/12/16 08:36:06;;;;;;;21.60;17.33;;;9.30;92.70;;;;;;5099649;28;20050;-80
2020/12/16 08:38:40;;;;;;;19.00;15.20;;;9.60;91.50;;;;;;5085248;28;20369;-80
2020/12/16 08:41:08;;;;;;;24.33;18.20;;;9.70;89.80;;;;;;5108241;28;20051;-80
2020/12/16 08:43:36;;;;;;;21.33;13.10;;;10.00;88.80;;;;;;5114459;28;20040;-80
2020/12/16 08:46:13;;;;;;;24.23;18.50;;;10.40;86.80;;;;;;5102207;28;20047;-80
2020/12/16 08:48:45;;;;;;;14.97;10.90;;;10.80;84.00;;;;;;5126556;28;20049;-80
2020/12/16 08:51:17;;;;;;;18.97;14.70;;;11.20;79.40;;;;;;5127991;28;20021;-79
2020/12/16 08:53:54;;;;;;;16.70;13.67;;;11.30;79.40;;;;;;5130340;28;20056;-79
2020/12/16 08:56:42;;;;;;;17.40;13.73;;;11.50;79.20;;;;;;5095194;28;20031;-79
2020/12/16 08:59:09;;;;;;;16.03;11.13;;;11.80;78.30;;;;;;5071098;28;20173;-78
2020/12/16 09:01:36;;;;;;;21.47;15.67;;;11.90;76.60;;;;;;5093981;28;20141;-79
2020/12/16 09:04:01;;;;;;;18.63;10.27;;;12.20;76.90;;;;;;5098578;28;20105;-78
2020/12/16 09:06:27;;;;;;;32.03;18.00;;;12.50;75.30;;;;;;5076295;28;20103;-79
2020/12/16 09:08:53;;;;;;;28.97;16.07;;;12.70;74.90;;;;;;5047786;28;20380;-79
2020/12/16 09:11:20;;;;;;;23.85;16.60;;;13.00;74.70;;;;;;5069070;28;20060;-79
2020/12/16 09:13:46;;;;;;;19.88;13.85;;;13.20;73.50;;;;;;5075421;28;20039;-78
2020/12/16 09:16:22;;;;;;;23.15;15.75;;;13.30;71.80;;;;;;5091598;28;20056;-79
2020/12/16 09:18:49;;;;;;;22.35;16.08;;;13.60;71.90;;;;;;5098881;27;20031;-79
2020/12/16 09:21:30;;;;;;;16.38;13.32;;;13.80;71.20;;;;;;5089410;28;20496;-79
2020/12/16 09:23:55;;;;;;;17.67;13.27;;;14.00;69.40;;;;;;5112462;28;20089;-79
2020/12/16 09:26:33;;;;;;;12.38;9.73;;;14.10;68.80;;;;;;5111561;28;20473;-79
2020/12/16 09:28:59;;;;;;;10.98;9.35;;;14.10;67.30;;;;;;5112321;28;20032;-79
2020/12/16 09:31:24;;;;;;;11.38;9.48;;;13.80;66.60;;;;;;5092841;28;20024;-79
2020/12/16 09:33:57;;;;;;;10.85;9.27;;;13.60;67.60;;;;;;5094038;28;20467;-79
2020/12/16 09:36:27;;;;;;;13.98;10.48;;;13.60;67.80;;;;;;5113414;28;20103;-79
2020/12/16 09:38:58;;;;;;;13.68;11.20;;;13.60;68.20;;;;;;5112808;28;20019;-79
2020/12/16 09:41:24;;;;;;;12.30;9.73;;;13.80;68.00;;;;;;5112606;28;20080;-79
2020/12/16 09:43:50;;;;;;;9.55;8.20;;;13.80;67.60;;;;;;5095226;28;20036;-79
2020/12/16 09:46:21;;;;;;;9.82;8.02;;;13.80;67.80;;;;;;5111572;28;20032;-80
2020/12/16 09:48:48;;;;;;;7.82;7.03;;;13.90;67.30;;;;;;5112474;28;20495;-79
2020/12/16 09:51:22;;;;;;;9.27;8.35;;;13.80;66.50;;;;;;5089624;28;20028;-79
2020/12/16 09:53:48;;;;;;;11.02;9.60;;;13.70;67.70;;;;;;5061242;28;20463;-80
2020/12/16 09:56:28;;;;;;;8.40;7.53;;;13.80;67.60;;;;;;5084031;28;20043;-79
2020/12/16 09:58:54;;;;;;;9.18;7.72;;;13.90;66.70;;;;;;5111443;28;20023;-79
2020/12/16 10:01:20;;;;;;;10.27;8.80;;;14.00;67.20;;;;;;5110268;28;20024;-80
2020/12/16 10:03:49;;;;;;;10.18;8.07;;;14.10;66.90;;;;;;5112171;28;20513;-79
2020/12/16 10:06:16;;;;;;;10.70;8.07;;;14.20;65.80;;;;;;5109548;28;20050;-79
2020/12/16 10:08:42;;;;;;;9.68;7.97;;;14.10;66.40;;;;;;5089645;28;20081;-81
2020/12/16 10:11:14;;;;;;;9.98;7.65;;;14.00;65.10;;;;;;5098960;28;20063;-79
2020/12/16 10:13:42;;;;;;;11.38;7.78;;;13.80;66.50;;;;;;5081115;28;20119;-80
2020/12/16 10:16:08;;;;;;;10.00;8.15;;;13.90;67.00;;;;;;5056337;28;20032;-80
2020/12/16 10:18:34;;;;;;;10.45;8.73;;;13.80;66.30;;;;;;5104039;28;20035;-80
2020/12/16 10:21:00;;;;;;;9.98;8.93;;;13.50;67.90;;;;;;5093452;28;20501;-79
2020/12/16 10:23:25;;;;;;;10.23;8.38;;;13.20;68.60;;;;;;5071238;28;20039;-79
2020/12/16 10:25:51;;;;;;;9.60;8.48;;;12.90;68.90;;;;;;5079726;28;20036;-78
2020/12/16 10:28:18;;;;;;;9.40;7.88;;;12.50;69.60;;;;;;5076700;28;20038;-79
2020/12/16 10:30:44;;;;;;;10.35;9.07;;;12.10;70.20;;;;;;5093996;28;20076;-79
2020/12/16 10:33:10;;;;;;;11.63;8.60;;;11.90;72.10;;;;;;5112223;28;20474;-79
2020/12/16 10:35:36;;;;;;;10.00;9.00;;;11.60;72.20;;;;;;5093368;28;20368;-79
2020/12/16 10:38:01;;;;;;;11.80;9.83;;;11.40;73.30;;;;;;5093758;28;20028;-78
2020/12/16 10:40:31;;;;;;;11.37;9.30;;;11.30;74.50;;;;;;5107039;28;20028;-79
2020/12/16 10:43:00;;;;;;;9.07;8.17;;;11.30;74.50;;;;;;5074669;28;20024;-78
2020/12/16 10:45:26;;;;;;;9.67;8.67;;;11.40;74.80;;;;;;5074543;28;20793;-79
2020/12/16 10:47:57;;;;;;;9.87;8.83;;;11.40;74.90;;;;;;5076720;28;20075;-79
2020/12/16 10:50:24;;;;;;;10.60;9.03;;;11.30;75.00;;;;;;5110306;28;20068;-79
2020/12/16 10:52:50;;;;;;;8.60;7.70;;;11.30;75.70;;;;;;5079327;28;20028;-80
2020/12/16 10:55:15;;;;;;;9.93;7.97;;;11.30;75.70;;;;;;5073426;28;20050;-79
2020/12/16 10:57:41;;;;;;;10.10;8.30;;;11.10;75.50;;;;;;5092852;28;20047;-79
2020/12/16 11:00:07;;;;;;;8.53;7.73;;;11.10;76.50;;;;;;5110820;28;20051;-79
2020/12/16 11:02:32;;;;;;;7.97;7.13;;;11.10;76.00;;;;;;5077994;28;20063;-79
2020/12/16 11:04:58;;;;;;;8.53;7.63;;;11.10;76.00;;;;;;5116138;28;20040;-79
2020/12/16 11:07:23;;;;;;;9.83;7.20;;;11.10;76.10;;;;;;5095356;28;20356;-79
2020/12/16 11:09:49;;;;;;;8.13;7.10;;;11.10;76.60;;;;;;5076998;28;20040;-79
2020/12/16 11:12:15;;;;;;;8.80;6.70;;;11.00;76.80;;;;;;5074273;28;20544;-79
2020/12/16 11:14:41;;;;;;;9.00;7.57;;;10.90;76.80;;;;;;5078602;28;20028;-79
2020/12/16 11:17:08;;;;;;;7.83;6.90;;;10.80;78.00;;;;;;5076485;28;20065;-79
2020/12/16 11:19:34;;;;;;;8.23;7.43;;;10.80;77.60;;;;;;5110277;28;20059;-79
2020/12/16 11:21:59;;;;;;;9.67;7.43;;;10.80;78.10;;;;;;5097354;28;20061;-80
2020/12/16 11:24:27;;;;;;;10.10;8.20;;;10.90;78.00;;;;;;5094988;28;20039;-79
2020/12/16 11:26:53;;;;;;;10.63;8.80;;;11.00;78.20;;;;;;5090573;28;20035;-79
2020/12/16 11:29:22;;;;;;;10.17;8.30;;;11.20;77.60;;;;;;5095708;28;20039;-80
2020/12/16 11:31:53;;;;;;;9.90;8.50;;;11.40;78.00;;;;;;5083842;28;20115;-79
2020/12/16 11:34:22;;;;;;;10.17;8.03;;;11.60;77.70;;;;;;5090455;28;20118;-78
2020/12/16 11:36:49;;;;;;;10.10;7.70;;;11.80;77.00;;;;;;5087104;28;20446;-78
2020/12/16 11:39:15;;;;;;;10.43;8.53;;;11.80;77.10;;;;;;5101072;28;20115;-78
2020/12/16 11:41:45;;;;;;;11.87;8.50;;;11.80;76.80;;;;;;5068335;28;20119;-78
2020/12/16 11:44:12;;;;;;;10.67;8.37;;;11.70;77.00;;;;;;5056820;28;20077;-78
2020/12/16 11:46:38;;;;;;;10.83;8.57;;;11.70;76.70;;;;;;5086139;28;20043;-78
2020/12/16 11:49:04;;;;;;;11.80;9.50;;;11.60;76.90;;;;;;5087339;28;20023;-78
2020/12/16 11:51:30;;;;;;;12.13;8.30;;;11.50;77.60;;;;;;5069449;28;20024;-78
2020/12/16 11:53:57;;;;;;;11.97;8.00;;;11.40;77.90;;;;;;5087680;28;20089;-79
2020/12/16 11:56:23;;;;;;;11.70;8.87;;;11.40;78.20;;;;;;5099953;28;20032;-79
2020/12/16 11:58:49;;;;;;;9.23;7.77;;;11.40;78.40;;;;;;5111076;28;20027;-78
2020/12/16 12:01:19;;;;;;;15.60;8.87;;;11.40;78.40;;;;;;5086851;28;20145;-78
2020/12/16 12:03:45;;;;;;;10.50;8.07;;;11.40;78.70;;;;;;5105375;28;20110;-78
2020/12/16 12:06:12;;;;;;;9.63;7.70;;;11.50;78.60;;;;;;5082033;28;20039;-78
2020/12/16 12:08:39;;;;;;;13.70;8.90;;;11.40;78.50;;;;;;5110446;28;20470;-79
2020/12/16 12:11:05;;;;;;;13.63;8.87;;;11.30;79.10;;;;;;5091522;28;20143;-78
2020/12/16 12:13:32;;;;;;;12.73;8.83;;;11.20;79.60;;;;;;5077300;28;20023;-79
2020/12/16 12:15:58;;;;;;;13.53;9.93;;;11.20;80.20;;;;;;5077121;28;20059;-78
2020/12/16 12:18:24;;;;;;;12.63;9.43;;;11.30;80.10;;;;;;5112524;28;20023;-79
2020/12/16 12:20:49;;;;;;;13.90;8.87;;;11.30;80.00;;;;;;5113712;28;20060;-79
2020/12/16 12:23:15;;;;;;;10.57;8.77;;;11.40;80.10;;;;;;5111933;28;20478;-79
2020/12/16 12:25:41;;;;;;;12.53;9.50;;;11.40;79.60;;;;;;5077947;28;20096;-80
2020/12/16 12:28:06;;;;;;;10.47;8.57;;;11.40;80.00;;;;;;5064400;28;20036;-78
2020/12/16 12:30:33;;;;;;;13.23;9.70;;;11.40;79.50;;;;;;5077577;28;20472;-79
2020/12/16 12:32:58;;;;;;;13.47;9.47;;;11.30;80.10;;;;;;5085413;28;20023;-80
2020/12/16 12:35:24;;;;;;;12.90;9.23;;;11.50;80.30;;;;;;5094095;28;20082;-79
2020/12/16 12:37:50;;;;;;;11.77;9.30;;;11.50;80.50;;;;;;5095137;28;20051;-79
2020/12/16 12:40:15;;;;;;;11.37;8.83;;;11.50;79.90;;;;;;5060419;28;20070;-79
2020/12/16 12:42:41;;;;;;;12.87;9.63;;;11.40;80.30;;;;;;5095553;28;20077;-80